Irvington, VA

3:03 AM EDT on September 17, 2014 (GMT -0400)
Williamsburg-jamestown | Change Station
CLOSE
Current Station
Airport
Location: Williamsburg,
Elevation: 49 ft
Nearby Weather Stations

Elev 49 ft 37.24 °N, 76.72 °W | Updated 8 minutes ago

Mostly Cloudy
Mostly Cloudy
70 °F
Feels Like 70 °F
N
0
Wind Variable Wind from North

Today
High -- | Low -- °F
--% Chance of Precip.
Yesterday
High -- | Low -- °F
Precip. -- in
6:49 AM 7:10 PM
Last Quarter, 38% visible
Pressure 30.00 in
Visibility 10.0 miles
Clouds Mostly Cloudy 6500 ft
Mostly Cloudy 8000 ft
Dew Point 63 °F
Humidity 78%
Rainfall 0.00 in
Snow Depth Not available.
UV 0 out of 12
Pollen 6.90 out of 12
Air Quality Not available.
Flu Activity Not available.
METAR KJGG 170655Z AUTO 00000KT 10SM BKN065 BKN080 21/17 A3000 RMK AO1

More Conditions Fewer Conditions

Pressure 30.00 in
Visibility 10.0 miles
Clouds Mostly Cloudy 6500 ft
Mostly Cloudy 8000 ft
Dew Point 63 °F
Humidity 78%
Rainfall 0.00 in
Snow Depth Not available.
UV 0 out of 12
Pollen 6.90 out of 12
Air Quality Not available.
Flu Activity Not available.
METAR KJGG 170655Z AUTO 00000KT 10SM BKN065 BKN080 21/17 A3000 RMK AO1

More Conditions Fewer Conditions

10-Day Weather Forecast

Almanac

Astronomy

Sep. 17, 2014 Rise Set
Actual Time 6:49 AM EDT 7:10 PM EDT
Civil Twilight 6:22 AM EDT 7:36 PM EDT
Nautical Twilight 5:52 AM EDT 8:07 PM EDT
Astronomical Twilight 5:20 AM EDT 8:38 PM EDT
Moon 12:52 AM EDT 3:14 PM EDT
Length of Visible Light 13h 13m
Length of Day
12h 21m
Tomorrow will be 2m 24s shorter.
Last Quarter, 38% of the Moon is Illuminated
Today
Last Quarter
Sep 24
New
Oct 1
First Quarter
Oct 8
Full
Oct 15
Last Quarter

Today's Extremes

State Highs State Lows

Community

WunderPhotos

Upload Photos

1,753,976 photos uploaded!

Nearby

Snow Depth

Station Depth Elevation
No new snow has been reported.

Earthquake Activity

City Distance Mag. Time & Date
No recent earthquake activity has been reported nearby.
Minimum magnitude displayed is 2.5.

Coastal Water Temperatures

Place Temperature
No Stations Reporting

Nearby Weather Stations